Flight Briefing for CPX210

Departure Arrival
Miami International Airport (KMIA)
Click to view FAA NOTAMS
Benito Juárez International Airport (MMMX)
Click to view FAA NOTAMS
Departure Time Arrival Time
0200 UTC 0500 UTC
Aircraft Distance
B767-300BDSF 1190nm
Departure METAR Arrival METAR
KMIA 250253Z 07010KT 10SM FEW039 26/18 A3009 RMK AO2 SLP190 T02610178 53011 MMMX 250246Z 02011KT 7SM SCT020CB BKN080 OVC200 21/08 A3028 NOSIG RMK SLP063 52022 907 8/363 HZY OCNL LTGICCG SW
Suggested Route
MNATE2 MNATE MTH B646 CANOA UB646 XOPGI UR522 NUBEL UT31 PAZ UJ55 DATUL DATUL4A


View recent IFR Routes data
Notes



Charts and Procedures

Charts for KMIA
No chart available
Charts for MMMX
No chart available

Windy.com Weather Map